createdAt,value
2023-01-26T00:01:17.583Z,24.33
2023-01-26T00:03:44.588Z,25.80
2023-01-26T00:06:13.630Z,23.13
2023-01-26T00:08:42.510Z,24.10
2023-01-26T00:11:11.335Z,24.10
2023-01-26T00:13:38.442Z,23.93
2023-01-26T00:16:09.012Z,23.10
2023-01-26T00:18:37.902Z,22.60
2023-01-26T00:21:04.969Z,24.23
2023-01-26T00:23:33.735Z,24.40
2023-01-26T00:26:01.178Z,24.57
2023-01-26T00:28:28.993Z,24.00
2023-01-26T00:31:06.685Z,23.00
2023-01-26T00:33:33.891Z,22.47
2023-01-26T00:36:00.825Z,22.33
2023-01-26T00:38:27.835Z,23.30
2023-01-26T00:40:54.664Z,24.23
2023-01-26T00:43:21.752Z,23.57
2023-01-26T00:45:48.637Z,24.23
2023-01-26T00:48:16.060Z,23.70
2023-01-26T00:50:42.867Z,23.13
2023-01-26T00:53:10.085Z,23.70
2023-01-26T00:55:37.266Z,23.33
2023-01-26T00:58:08.673Z,24.47
2023-01-26T01:00:38.025Z,22.67
2023-01-26T01:03:06.266Z,25.87
2023-01-26T01:05:33.885Z,24.03
2023-01-26T01:08:01.124Z,22.97
2023-01-26T01:10:27.924Z,22.73
2023-01-26T01:12:55.291Z,22.90
2023-01-26T01:15:22.149Z,22.97
2023-01-26T01:17:49.040Z,24.30
2023-01-26T01:20:16.034Z,25.80
2023-01-26T01:22:42.921Z,23.10
2023-01-26T01:25:09.990Z,26.07
2023-01-26T01:27:36.746Z,24.80
2023-01-26T01:30:07.816Z,25.60
2023-01-26T01:32:39.648Z,26.37
2023-01-26T01:35:07.419Z,26.17
2023-01-26T01:37:34.232Z,25.67
2023-01-26T01:40:00.960Z,27.00
2023-01-26T01:42:28.085Z,23.43
2023-01-26T01:45:26.280Z,26.00
2023-01-26T01:47:59.445Z,25.37
2023-01-26T01:50:27.460Z,25.43
2023-01-26T01:52:55.919Z,23.90
2023-01-26T01:55:25.659Z,24.43
2023-01-26T01:57:58.809Z,26.97
2023-01-26T02:00:26.241Z,25.33
2023-01-26T02:03:16.712Z,24.97
2023-01-26T02:06:02.049Z,26.03
2023-01-26T02:08:37.687Z,24.97
2023-01-26T02:11:14.891Z,24.37
2023-01-26T02:13:44.587Z,27.07
2023-01-26T02:16:11.733Z,26.43
2023-01-26T02:18:39.089Z,24.77
2023-01-26T02:21:20.522Z,26.17
2023-01-26T02:24:17.340Z,24.87
2023-01-26T02:26:44.207Z,23.93
2023-01-26T02:29:11.690Z,23.10
2023-01-26T02:31:40.660Z,23.83
2023-01-26T02:34:07.602Z,24.27
2023-01-26T02:36:34.748Z,25.13
2023-01-26T02:39:27.208Z,23.07
2023-01-26T02:42:13.733Z,23.20
2023-01-26T02:44:42.267Z,24.60
2023-01-26T02:47:13.928Z,23.80
2023-01-26T02:49:52.935Z,23.57
2023-01-26T02:52:22.496Z,22.83
2023-01-26T02:55:07.712Z,21.80
2023-01-26T02:57:36.014Z,22.13
2023-01-26T03:00:05.951Z,21.57
2023-01-26T03:02:32.845Z,24.57
2023-01-26T03:04:59.621Z,23.30
2023-01-26T03:07:26.388Z,22.17
2023-01-26T03:09:53.360Z,22.20
2023-01-26T03:12:20.098Z,22.23
2023-01-26T03:15:06.813Z,23.07
2023-01-26T03:17:33.590Z,23.67
2023-01-26T03:20:18.754Z,21.50
2023-01-26T03:23:04.271Z,23.90
2023-01-26T03:25:49.924Z,22.37
2023-01-26T03:28:22.593Z,21.43
2023-01-26T03:30:50.356Z,21.57
2023-01-26T03:33:18.566Z,22.33
2023-01-26T03:35:45.698Z,22.20
2023-01-26T03:38:12.966Z,21.97
2023-01-26T03:40:58.353Z,20.93
2023-01-26T03:43:44.003Z,20.93
2023-01-26T03:46:29.474Z,18.17
2023-01-26T03:49:14.849Z,18.80
2023-01-26T03:52:00.186Z,19.93
2023-01-26T03:54:45.588Z,17.77
2023-01-26T03:57:12.709Z,19.00
2023-01-26T03:59:39.541Z,17.50
2023-01-26T04:02:26.704Z,17.77
2023-01-26T04:05:12.958Z,18.07
2023-01-26T04:07:58.987Z,17.17
2023-01-26T04:10:26.347Z,16.90
2023-01-26T04:13:11.740Z,15.70
2023-01-26T04:15:57.498Z,15.47
2023-01-26T04:18:42.833Z,15.90
2023-01-26T04:21:29.095Z,13.93
2023-01-26T04:23:57.671Z,14.77
2023-01-26T04:26:35.802Z,14.00
2023-01-26T04:29:11.336Z,14.30
2023-01-26T04:31:39.024Z,13.70
2023-01-26T04:34:07.656Z,13.43
2023-01-26T04:36:34.577Z,14.40
2023-01-26T04:39:01.358Z,13.53
2023-01-26T04:41:30.308Z,14.23
2023-01-26T04:43:57.109Z,13.60
2023-01-26T04:46:24.057Z,13.50
2023-01-26T04:48:51.227Z,16.43
2023-01-26T04:51:20.906Z,12.47
2023-01-26T04:53:49.186Z,14.73
2023-01-26T04:56:28.226Z,14.70
2023-01-26T04:58:56.303Z,13.97
2023-01-26T05:01:23.213Z,13.70
2023-01-26T05:03:50.474Z,13.57
2023-01-26T05:06:17.461Z,12.97
2023-01-26T05:08:44.690Z,13.13
2023-01-26T05:11:11.780Z,13.93
2023-01-26T05:13:39.600Z,12.57
2023-01-26T05:16:07.856Z,13.67
2023-01-26T05:18:34.638Z,12.53
2023-01-26T05:21:01.402Z,12.80
2023-01-26T05:23:28.137Z,12.93
2023-01-26T05:25:54.852Z,12.77
2023-01-26T05:28:21.581Z,12.77
2023-01-26T05:30:48.537Z,13.77
2023-01-26T05:33:16.013Z,13.80
2023-01-26T05:35:43.184Z,13.23
2023-01-26T05:38:09.984Z,11.47
2023-01-26T05:40:36.814Z,13.77
2023-01-26T05:43:03.569Z,13.80
2023-01-26T05:45:30.449Z,13.03
2023-01-26T05:47:57.279Z,13.00
2023-01-26T05:50:24.044Z,11.37
2023-01-26T05:52:50.837Z,11.73
2023-01-26T05:55:17.945Z,13.67
2023-01-26T05:57:44.875Z,13.93
2023-01-26T06:00:13.391Z,12.37
2023-01-26T06:02:40.688Z,12.17
2023-01-26T06:05:08.420Z,12.20
2023-01-26T06:07:35.232Z,10.90
2023-01-26T06:10:02.107Z,12.47
2023-01-26T06:12:31.688Z,12.07
2023-01-26T06:14:59.003Z,11.93
2023-01-26T06:17:25.794Z,11.03
2023-01-26T06:19:52.563Z,11.57
2023-01-26T06:22:19.340Z,12.00
2023-01-26T06:24:46.785Z,11.83
2023-01-26T06:27:18.587Z,13.27
2023-01-26T06:29:46.260Z,11.53
2023-01-26T06:32:16.503Z,12.00
2023-01-26T06:34:43.411Z,13.33
2023-01-26T06:37:10.572Z,11.90
2023-01-26T06:39:37.625Z,12.73
2023-01-26T06:42:04.968Z,12.97
2023-01-26T06:44:31.672Z,13.97
2023-01-26T06:46:58.333Z,11.63
2023-01-26T06:49:25.075Z,12.03
2023-01-26T06:52:03.321Z,12.43
2023-01-26T06:54:30.084Z,11.60
2023-01-26T06:56:56.861Z,12.13
2023-01-26T06:59:23.606Z,9.93
2023-01-26T07:01:50.293Z,11.07
2023-01-26T07:04:18.355Z,12.33
2023-01-26T07:06:45.097Z,11.60
2023-01-26T07:09:11.920Z,10.10
2023-01-26T07:11:38.714Z,12.00
2023-01-26T07:14:05.443Z,11.70
2023-01-26T07:16:33.875Z,11.23
2023-01-26T07:19:00.993Z,12.37
2023-01-26T07:21:27.832Z,12.43
2023-01-26T07:23:55.842Z,11.40
2023-01-26T07:26:22.694Z,12.47
2023-01-26T07:28:49.474Z,13.00
2023-01-26T07:31:16.569Z,12.53
2023-01-26T07:33:43.438Z,10.97
2023-01-26T07:36:11.150Z,10.77
2023-01-26T07:38:38.423Z,11.50
2023-01-26T07:41:08.247Z,12.13
2023-01-26T07:43:37.463Z,11.70
2023-01-26T07:46:05.132Z,11.93
2023-01-26T07:48:34.171Z,12.20
2023-01-26T07:51:03.672Z,12.57
2023-01-26T07:53:34.051Z,12.20
2023-01-26T07:56:14.399Z,10.90
2023-01-26T07:58:41.608Z,10.90
2023-01-26T08:01:14.353Z,11.50
2023-01-26T08:03:42.448Z,10.97
2023-01-26T08:06:12.024Z,11.17
2023-01-26T08:08:41.388Z,11.70
2023-01-26T08:11:09.595Z,12.67
2023-01-26T08:13:36.459Z,12.10
2023-01-26T08:16:12.019Z,13.23
2023-01-26T08:18:43.368Z,11.57
2023-01-26T08:21:11.696Z,12.67
2023-01-26T08:23:38.453Z,13.97
2023-01-26T08:26:07.936Z,13.20
2023-01-26T08:28:35.942Z,13.00
2023-01-26T08:31:11.546Z,13.60
2023-01-26T08:33:39.641Z,14.53
2023-01-26T08:36:10.380Z,13.30
2023-01-26T08:38:37.402Z,15.27
2023-01-26T08:41:04.934Z,13.67
2023-01-26T08:43:31.939Z,13.40
2023-01-26T08:45:59.157Z,15.13
2023-01-26T08:48:25.982Z,16.03
2023-01-26T08:50:57.249Z,15.23
2023-01-26T08:53:24.378Z,14.37
2023-01-26T08:55:52.061Z,14.07
2023-01-26T08:58:20.478Z,15.50
2023-01-26T09:00:47.419Z,14.13
2023-01-26T09:03:14.359Z,14.90
2023-01-26T09:05:41.444Z,14.90
2023-01-26T09:08:09.633Z,15.37
2023-01-26T09:10:38.785Z,15.87
2023-01-26T09:13:06.222Z,14.63
2023-01-26T09:15:33.105Z,13.87
2023-01-26T09:18:01.074Z,16.83
2023-01-26T09:20:28.779Z,16.50
2023-01-26T09:22:55.592Z,15.73
2023-01-26T09:25:22.296Z,15.73
2023-01-26T09:27:49.058Z,14.37
2023-01-26T09:30:16.311Z,15.50
2023-01-26T09:32:43.181Z,14.37
2023-01-26T09:35:14.223Z,15.97
2023-01-26T09:37:43.221Z,14.53
2023-01-26T09:40:18.273Z,16.17
2023-01-26T09:43:17.468Z,15.20
2023-01-26T09:46:03.547Z,15.40
2023-01-26T09:48:36.236Z,14.67
2023-01-26T09:51:06.153Z,14.73
2023-01-26T09:53:55.679Z,14.10
2023-01-26T09:56:28.274Z,15.27
2023-01-26T09:59:15.319Z,14.50
2023-01-26T10:02:01.967Z,15.37
2023-01-26T10:04:36.797Z,13.47
2023-01-26T10:07:09.224Z,15.33
2023-01-26T10:09:38.759Z,16.37
2023-01-26T10:12:28.568Z,15.67
2023-01-26T10:15:26.633Z,15.27
2023-01-26T10:17:55.148Z,13.73
2023-01-26T10:20:30.817Z,14.27
2023-01-26T10:23:34.197Z,14.67
2023-01-26T10:26:17.539Z,15.33
2023-01-26T10:28:46.669Z,13.37
2023-01-26T10:31:22.738Z,13.57
2023-01-26T10:34:00.183Z,14.17
2023-01-26T10:36:31.989Z,12.73
2023-01-26T10:39:10.525Z,11.67
2023-01-26T10:41:37.875Z,12.03
2023-01-26T10:44:23.678Z,11.67
2023-01-26T10:47:05.885Z,10.57
2023-01-26T10:49:32.957Z,10.70
2023-01-26T10:52:25.035Z,9.23
2023-01-26T10:55:20.818Z,10.53
2023-01-26T10:57:47.645Z,9.60
2023-01-26T11:00:25.322Z,10.40
2023-01-26T11:03:01.552Z,9.83
2023-01-26T11:05:28.436Z,9.10
2023-01-26T11:08:00.527Z,8.40
2023-01-26T11:10:32.797Z,8.13
2023-01-26T11:13:19.326Z,7.77
2023-01-26T11:16:01.463Z,8.10
2023-01-26T11:18:42.850Z,6.67
2023-01-26T11:21:19.729Z,6.03
2023-01-26T11:23:54.703Z,6.07
2023-01-26T11:26:33.328Z,5.60
2023-01-26T11:29:37.488Z,6.13
2023-01-26T11:32:30.485Z,4.83
2023-01-26T11:35:03.262Z,4.40
2023-01-26T11:37:59.186Z,5.47
2023-01-26T11:40:46.590Z,5.00
2023-01-26T11:43:30.750Z,5.57
2023-01-26T11:46:03.386Z,4.40
2023-01-26T11:48:46.624Z,4.50
2023-01-26T11:51:19.307Z,4.07
2023-01-26T11:54:07.663Z,5.10
2023-01-26T12:00:28.632Z,4.03
2023-01-26T12:03:26.492Z,4.03
2023-01-26T12:05:57.956Z,4.33
2023-01-26T12:08:45.188Z,4.00
2023-01-26T12:11:47.859Z,3.70
2023-01-26T12:14:50.127Z,3.67
2023-01-26T12:17:38.791Z,3.90
2023-01-26T12:20:33.172Z,2.70
2023-01-26T12:23:09.219Z,2.97
2023-01-26T12:25:39.492Z,3.20
2023-01-26T12:28:33.689Z,2.73
2023-01-26T12:31:23.366Z,2.20
2023-01-26T12:33:54.456Z,2.80
2023-01-26T12:36:45.781Z,2.40
2023-01-26T12:39:36.968Z,3.00
2023-01-26T12:42:29.263Z,2.63
2023-01-26T12:45:02.073Z,1.90
2023-01-26T12:47:44.719Z,2.67
2023-01-26T12:50:38.084Z,2.73
2023-01-26T12:53:19.095Z,2.60
2023-01-26T12:55:54.131Z,1.70
2023-01-26T12:58:33.051Z,2.17
2023-01-26T13:01:05.223Z,1.87
2023-01-26T13:03:38.408Z,2.63
2023-01-26T13:06:10.941Z,2.60
2023-01-26T13:08:37.704Z,2.13
2023-01-26T13:11:09.202Z,2.07
2023-01-26T13:13:56.928Z,2.60
2023-01-26T13:16:31.764Z,1.87
2023-01-26T13:19:00.172Z,2.53
2023-01-26T13:21:27.241Z,2.63
2023-01-26T13:23:54.276Z,2.17
2023-01-26T13:26:25.960Z,2.43
2023-01-26T13:29:12.703Z,2.20
2023-01-26T13:31:39.556Z,2.60
2023-01-26T13:34:09.151Z,1.60
2023-01-26T13:36:39.867Z,2.03
2023-01-26T13:39:33.433Z,2.20
2023-01-26T13:42:00.292Z,2.30
2023-01-26T13:44:46.123Z,2.17
2023-01-26T13:47:21.120Z,2.17
2023-01-26T13:49:50.488Z,2.10
2023-01-26T13:52:20.447Z,2.07
2023-01-26T13:54:49.058Z,1.93
2023-01-26T13:57:27.726Z,1.70
2023-01-26T14:00:00.332Z,2.67
2023-01-26T14:02:32.911Z,1.80
2023-01-26T14:05:01.508Z,1.80
2023-01-26T14:07:32.738Z,1.43
2023-01-26T14:10:02.175Z,1.40
2023-01-26T14:12:51.863Z,1.13
2023-01-26T14:15:30.492Z,1.37
2023-01-26T14:18:00.022Z,1.20
2023-01-26T14:20:28.655Z,1.40
2023-01-26T14:23:15.379Z,1.10
2023-01-26T14:25:46.915Z,1.33
2023-01-26T14:28:16.468Z,1.23
2023-01-26T14:30:43.920Z,1.20
2023-01-26T14:33:16.494Z,1.60
2023-01-26T14:35:55.761Z,1.40
2023-01-26T14:38:22.545Z,1.33
2023-01-26T14:40:51.978Z,1.43
2023-01-26T14:43:19.545Z,1.37
2023-01-26T14:45:53.566Z,1.60
2023-01-26T14:48:22.881Z,1.17
2023-01-26T14:50:49.860Z,1.30
2023-01-26T14:53:20.775Z,1.40
2023-01-26T14:55:48.976Z,2.00
2023-01-26T14:58:29.921Z,1.83
2023-01-26T15:00:58.793Z,1.70
2023-01-26T15:03:38.851Z,1.30
2023-01-26T15:06:05.890Z,1.00
2023-01-26T15:08:36.101Z,1.10
2023-01-26T15:11:22.864Z,1.60
2023-01-26T15:13:55.237Z,1.13
2023-01-26T15:16:24.640Z,1.73
2023-01-26T15:19:02.946Z,1.17
2023-01-26T15:21:40.296Z,1.07
2023-01-26T15:24:32.475Z,1.20
2023-01-26T15:27:06.884Z,1.43
2023-01-26T15:29:34.681Z,1.33
2023-01-26T15:32:01.774Z,1.67
2023-01-26T15:34:39.292Z,1.47
2023-01-26T15:37:24.752Z,1.40
2023-01-26T15:39:51.453Z,1.67
2023-01-26T15:42:24.456Z,1.83
2023-01-26T15:44:51.252Z,1.20
2023-01-26T15:47:18.105Z,1.00
2023-01-26T15:49:44.898Z,1.20
2023-01-26T15:52:17.058Z,0.90
2023-01-26T15:54:44.424Z,1.30
2023-01-26T15:57:14.376Z,1.57
2023-01-26T15:59:41.360Z,1.30
2023-01-26T16:02:28.762Z,1.50
2023-01-26T16:04:55.533Z,1.17
2023-01-26T16:07:22.266Z,1.77
2023-01-26T16:09:50.943Z,1.20
2023-01-26T16:12:31.520Z,1.73
2023-01-26T16:14:58.938Z,1.03
2023-01-26T16:17:25.903Z,1.70
2023-01-26T16:19:52.739Z,1.77
2023-01-26T16:22:19.524Z,1.10
2023-01-26T16:24:47.125Z,1.57
2023-01-26T16:27:13.878Z,1.30
2023-01-26T16:29:40.761Z,2.00
2023-01-26T16:32:27.208Z,1.30
2023-01-26T16:34:53.967Z,2.03
2023-01-26T16:37:20.737Z,1.33
2023-01-26T16:39:47.439Z,1.70
2023-01-26T16:42:18.518Z,1.43
2023-01-26T16:44:46.250Z,1.47
2023-01-26T16:47:12.990Z,1.23
2023-01-26T16:49:39.736Z,1.43
2023-01-26T16:52:09.013Z,1.33
2023-01-26T16:54:35.740Z,1.80
2023-01-26T16:57:02.757Z,1.47
2023-01-26T16:59:29.717Z,1.33
2023-01-26T17:01:57.055Z,1.57
2023-01-26T17:04:23.834Z,1.30
2023-01-26T17:06:50.592Z,1.10
2023-01-26T17:09:17.401Z,1.33
2023-01-26T17:11:44.102Z,1.20
2023-01-26T17:14:12.816Z,1.13
2023-01-26T17:16:39.773Z,0.93
2023-01-26T17:19:09.072Z,0.77
2023-01-26T17:21:36.420Z,1.50
2023-01-26T17:24:03.626Z,0.80
2023-01-26T17:26:30.473Z,0.97
2023-01-26T17:28:57.389Z,1.03
2023-01-26T17:31:24.979Z,1.20
2023-01-26T17:33:52.098Z,0.73
2023-01-26T17:36:19.883Z,0.77
2023-01-26T17:38:47.687Z,0.77
2023-01-26T17:41:15.151Z,1.10
2023-01-26T17:43:41.930Z,1.47
2023-01-26T17:46:12.855Z,1.57
2023-01-26T17:48:40.444Z,1.40
2023-01-26T17:51:16.476Z,1.37
2023-01-26T17:53:44.729Z,0.97
2023-01-26T17:56:14.437Z,0.97
2023-01-26T17:58:41.679Z,1.40
2023-01-26T18:01:10.123Z,1.77
2023-01-26T18:03:41.230Z,2.70
2023-01-26T18:06:08.264Z,1.13
2023-01-26T18:08:36.923Z,1.47
2023-01-26T18:11:05.716Z,1.23
2023-01-26T18:13:33.060Z,1.30
2023-01-26T18:16:00.162Z,1.73
2023-01-26T18:18:29.533Z,1.37
2023-01-26T18:20:56.765Z,1.53
2023-01-26T18:23:24.484Z,1.40
2023-01-26T18:25:51.566Z,2.57
2023-01-26T18:28:18.436Z,1.30
2023-01-26T18:30:45.425Z,1.43
2023-01-26T18:33:12.204Z,1.30
2023-01-26T18:35:38.931Z,1.67
2023-01-26T18:38:05.652Z,1.70
2023-01-26T18:40:32.374Z,1.67
2023-01-26T18:42:59.221Z,1.70
2023-01-26T18:45:26.053Z,1.50
2023-01-26T18:47:52.808Z,1.67
2023-01-26T18:50:19.673Z,1.60
2023-01-26T18:52:46.484Z,1.20
2023-01-26T18:55:13.475Z,1.20
2023-01-26T18:57:40.491Z,1.70
2023-01-26T19:00:09.083Z,1.40
2023-01-26T19:02:38.428Z,2.23
2023-01-26T19:05:07.468Z,1.77
2023-01-26T19:07:34.999Z,1.50
2023-01-26T19:10:02.176Z,2.10
2023-01-26T19:12:28.971Z,1.47
2023-01-26T19:14:55.737Z,1.60
2023-01-26T19:17:22.443Z,1.60
2023-01-26T19:19:49.210Z,1.67
2023-01-26T19:22:16.088Z,1.20
2023-01-26T19:24:43.074Z,1.37
2023-01-26T19:27:10.560Z,1.10
2023-01-26T19:29:37.389Z,1.80
2023-01-26T19:32:04.275Z,2.20
2023-01-26T19:34:32.208Z,1.43
2023-01-26T19:36:59.286Z,1.20
2023-01-26T19:39:26.114Z,1.93
2023-01-26T19:41:52.981Z,1.77
2023-01-26T19:44:19.785Z,1.90
2023-01-26T19:46:49.630Z,1.90
2023-01-26T19:49:17.491Z,1.60
2023-01-26T19:51:44.305Z,1.80
2023-01-26T19:54:11.130Z,1.63
2023-01-26T19:56:38.039Z,1.90
2023-01-26T19:59:07.907Z,1.53
2023-01-26T20:01:34.926Z,2.07
2023-01-26T20:04:04.742Z,1.77
2023-01-26T20:06:33.935Z,1.83
2023-01-26T20:09:03.445Z,1.70
2023-01-26T20:11:30.622Z,2.33
2023-01-26T20:13:59.118Z,2.00
2023-01-26T20:16:29.873Z,2.60
2023-01-26T20:18:58.733Z,1.83
2023-01-26T20:21:25.879Z,2.40
2023-01-26T20:23:55.485Z,2.10
2023-01-26T20:26:24.155Z,6.13
2023-01-26T20:28:51.688Z,2.63
2023-01-26T20:31:22.024Z,9.63
2023-01-26T20:33:50.102Z,4.47
2023-01-26T20:36:19.847Z,3.37
2023-01-26T20:38:48.340Z,1.60
2023-01-26T20:41:18.622Z,2.70
2023-01-26T20:43:58.502Z,1.80
2023-01-26T20:46:29.339Z,2.70
2023-01-26T20:48:57.200Z,2.30
2023-01-26T20:51:29.535Z,2.03
2023-01-26T20:53:57.514Z,2.17
2023-01-26T20:56:24.412Z,1.77
2023-01-26T20:58:57.568Z,3.00
2023-01-26T21:01:25.066Z,2.30
2023-01-26T21:03:52.395Z,1.83
2023-01-26T21:06:21.171Z,2.17
2023-01-26T21:08:49.274Z,1.50
2023-01-26T21:11:17.179Z,1.67
2023-01-26T21:13:45.285Z,1.77
2023-01-26T21:16:16.700Z,2.33
2023-01-26T21:18:44.667Z,1.97
2023-01-26T21:21:14.606Z,1.80
2023-01-26T21:23:41.545Z,2.97
2023-01-26T21:26:12.978Z,2.20
2023-01-26T21:28:39.729Z,1.60
2023-01-26T21:31:09.063Z,1.60
2023-01-26T21:33:42.108Z,1.63
2023-01-26T21:36:11.342Z,1.70
2023-01-26T21:38:39.956Z,1.67
2023-01-26T21:41:30.492Z,1.30
2023-01-26T21:43:58.745Z,1.87
2023-01-26T21:46:26.247Z,1.40
2023-01-26T21:48:53.045Z,2.30
2023-01-26T21:51:39.165Z,2.13
2023-01-26T21:54:07.017Z,1.67
2023-01-26T21:56:34.513Z,1.80
2023-01-26T21:59:03.120Z,2.40
2023-01-26T22:01:35.308Z,1.67
2023-01-26T22:04:04.485Z,1.70
2023-01-26T22:06:31.328Z,2.17
2023-01-26T22:09:00.884Z,2.70
2023-01-26T22:11:28.557Z,2.97
2023-01-26T22:13:55.446Z,2.67
2023-01-26T22:16:22.585Z,2.57
2023-01-26T22:18:49.863Z,3.70
2023-01-26T22:21:18.360Z,2.20
2023-01-26T22:23:45.756Z,2.63
2023-01-26T22:26:22.380Z,1.50
2023-01-26T22:28:54.032Z,2.33
2023-01-26T22:31:22.991Z,2.20
2023-01-26T22:33:50.403Z,1.87
2023-01-26T22:36:17.595Z,1.87
2023-01-26T22:38:45.476Z,2.07
2023-01-26T22:41:21.216Z,1.90
2023-01-26T22:43:49.114Z,2.10
2023-01-26T22:46:17.662Z,2.23
2023-01-26T22:48:44.536Z,2.27
2023-01-26T22:51:14.790Z,1.90
2023-01-26T22:53:42.770Z,2.73
2023-01-26T22:56:10.781Z,2.53
2023-01-26T22:58:47.728Z,3.50
2023-01-26T23:01:22.791Z,2.53
2023-01-26T23:03:54.911Z,2.13
2023-01-26T23:06:22.570Z,2.23
2023-01-26T23:08:49.679Z,3.40
2023-01-26T23:11:19.994Z,3.47
2023-01-26T23:13:48.247Z,3.83
2023-01-26T23:16:15.304Z,3.07
2023-01-26T23:18:42.907Z,2.50
2023-01-26T23:21:10.410Z,4.00
2023-01-26T23:23:39.928Z,3.23
2023-01-26T23:26:07.501Z,2.80
2023-01-26T23:28:40.287Z,3.47
2023-01-26T23:31:08.271Z,3.00
2023-01-26T23:33:36.350Z,5.43
2023-01-26T23:36:03.825Z,5.83
2023-01-26T23:38:31.311Z,5.83
2023-01-26T23:41:00.294Z,3.63
2023-01-26T23:43:27.755Z,2.03
2023-01-26T23:45:56.822Z,2.30
2023-01-26T23:48:24.484Z,1.73
2023-01-26T23:50:58.898Z,2.27
2023-01-26T23:53:26.143Z,2.33
2023-01-26T23:55:53.160Z,2.03
2023-01-26T23:58:20.129Z,1.77
